createdAt,value
2022-10-11T00:00:07.135Z,7.20
2022-10-11T00:02:35.364Z,7.70
2022-10-11T00:05:02.359Z,7.30
2022-10-11T00:07:29.234Z,7.50
2022-10-11T00:09:56.115Z,7.00
2022-10-11T00:12:22.970Z,7.50
2022-10-11T00:17:17.063Z,7.70
2022-10-11T00:19:43.968Z,7.20
2022-10-11T00:22:10.814Z,7.50
2022-10-11T00:24:37.977Z,6.90
2022-10-11T00:27:04.798Z,7.00
2022-10-11T00:34:26.384Z,7.00
2022-10-11T00:36:53.247Z,7.50
2022-10-11T00:39:20.196Z,6.90
2022-10-11T00:44:19.289Z,7.30
2022-10-11T00:47:02.214Z,7.30
2022-10-11T00:49:42.667Z,7.20
2022-10-11T00:52:29.129Z,7.20
2022-10-11T00:54:59.679Z,7.20
2022-10-11T00:57:31.177Z,7.40
2022-10-11T00:59:58.918Z,7.60
2022-10-11T01:02:26.389Z,7.60
2022-10-11T01:05:05.901Z,7.30
2022-10-11T01:07:42.206Z,7.10
2022-10-11T01:10:09.368Z,7.20
2022-10-11T01:12:42.631Z,7.30
2022-10-11T01:15:23.588Z,7.30
2022-10-11T01:17:53.825Z,6.90
2022-10-11T01:21:10.068Z,6.80
2022-10-11T01:24:11.361Z,7.10
2022-10-11T01:26:47.968Z,7.10
2022-10-11T01:29:20.333Z,7.60
2022-10-11T01:31:56.665Z,7.30
2022-10-11T01:34:36.044Z,7.20
2022-10-11T01:37:29.395Z,7.40
2022-10-11T01:40:01.611Z,7.40
2022-10-11T01:42:30.032Z,7.10
2022-10-11T01:44:58.831Z,9.40
2022-10-11T01:47:26.661Z,7.20
2022-10-11T01:49:59.799Z,7.10
2022-10-11T01:52:34.008Z,7.00
2022-10-11T01:55:16.678Z,7.20
2022-10-11T01:58:07.930Z,7.30
2022-10-11T02:01:00.976Z,7.00
2022-10-11T02:03:43.056Z,7.10
2022-10-11T02:06:22.333Z,7.00
2022-10-11T02:09:16.812Z,6.70
2022-10-11T02:11:44.539Z,7.00
2022-10-11T02:14:16.716Z,7.10
2022-10-11T02:16:49.626Z,7.00
2022-10-11T02:19:19.995Z,6.70
2022-10-11T02:21:52.534Z,7.00
2022-10-11T02:24:30.008Z,7.10
2022-10-11T02:26:59.360Z,7.10
2022-10-11T02:29:29.481Z,7.00
2022-10-11T02:31:58.570Z,6.80
2022-10-11T02:34:31.535Z,7.40
2022-10-11T02:37:22.877Z,6.90
2022-10-11T02:39:56.642Z,6.80
2022-10-11T02:42:32.829Z,7.00
2022-10-11T02:45:31.630Z,7.00
2022-10-11T02:47:58.702Z,7.00
2022-10-11T02:52:52.796Z,7.00
2022-10-11T02:55:19.738Z,6.60
2022-10-11T02:57:46.759Z,7.00
2022-10-11T03:00:14.554Z,6.80
2022-10-11T03:05:09.050Z,6.80
2022-10-11T03:10:03.915Z,6.80
2022-10-11T03:12:30.856Z,6.60
2022-10-11T03:14:57.773Z,6.80
2022-10-11T03:17:36.165Z,6.50
2022-10-11T03:20:05.366Z,7.00
2022-10-11T03:22:32.224Z,7.20
2022-10-11T03:25:03.586Z,7.30
2022-10-11T03:27:31.071Z,6.70
2022-10-11T03:29:58.035Z,7.40
2022-10-11T03:32:25.286Z,7.30
2022-10-11T03:34:52.180Z,7.60
2022-10-11T03:37:19.141Z,7.30
2022-10-11T03:39:46.286Z,7.20
2022-10-11T03:42:14.031Z,7.10
2022-10-11T03:44:42.281Z,7.20
2022-10-11T03:49:40.020Z,7.60
2022-10-11T03:52:09.570Z,7.20
2022-10-11T03:57:04.063Z,7.30
2022-10-11T04:04:25.561Z,7.30
2022-10-11T04:06:52.406Z,7.80
2022-10-11T04:14:13.905Z,7.80
2022-10-11T04:16:41.249Z,7.50
2022-10-11T04:19:08.159Z,7.50
2022-10-11T04:21:35.074Z,7.90
2022-10-11T04:24:04.115Z,7.60
2022-10-11T04:26:31.423Z,7.80
2022-10-11T04:28:58.462Z,8.00
2022-10-11T04:31:25.391Z,8.00
2022-10-11T04:33:52.278Z,7.40
2022-10-11T04:41:15.085Z,7.60
2022-10-11T04:46:10.439Z,7.80
2022-10-11T04:48:37.975Z,7.90
2022-10-11T04:56:02.513Z,8.10
2022-10-11T04:58:30.924Z,8.00
2022-10-11T05:00:58.237Z,8.10
2022-10-11T05:03:26.011Z,7.90
2022-10-11T05:05:53.214Z,7.90
2022-10-11T05:08:23.222Z,7.90
2022-10-11T05:10:58.831Z,8.20
2022-10-11T05:13:28.312Z,8.10
2022-10-11T05:15:55.410Z,8.30
2022-10-11T05:18:22.662Z,8.00
2022-10-11T05:20:58.065Z,8.00
2022-10-11T05:23:25.069Z,8.30
2022-10-11T05:25:51.935Z,7.80
2022-10-11T05:28:23.342Z,9.10
2022-10-11T05:30:50.282Z,8.00
2022-10-11T05:33:20.092Z,8.30
2022-10-11T05:35:47.003Z,8.30
2022-10-11T05:38:14.100Z,8.70
2022-10-11T05:40:41.245Z,8.10
2022-10-11T05:43:08.340Z,8.50
2022-10-11T05:45:40.096Z,8.30
2022-10-11T05:53:03.107Z,7.90
2022-10-11T05:57:58.076Z,8.20
2022-10-11T06:00:24.984Z,7.80
2022-10-11T06:02:51.795Z,7.90
2022-10-11T06:05:18.845Z,8.40
2022-10-11T06:07:45.791Z,8.30
2022-10-11T06:10:13.167Z,7.80
2022-10-11T06:12:40.092Z,8.20
2022-10-11T06:15:08.522Z,8.10
2022-10-11T06:20:03.951Z,8.10
2022-10-11T06:22:30.800Z,8.20
2022-10-11T06:24:57.643Z,8.00
2022-10-11T06:32:19.146Z,7.90
2022-10-11T06:34:46.194Z,7.80
2022-10-11T06:37:13.373Z,8.00
2022-10-11T06:42:07.623Z,8.10
2022-10-11T06:44:34.465Z,8.50
2022-10-11T06:47:01.360Z,8.10
2022-10-11T06:49:28.276Z,8.60
2022-10-11T06:51:55.449Z,8.50
2022-10-11T06:54:22.539Z,8.80
2022-10-11T06:56:49.484Z,8.90
2022-10-11T06:59:16.395Z,8.80
2022-10-11T07:01:43.416Z,8.70
2022-10-11T07:04:10.294Z,9.50
2022-10-11T07:06:40.179Z,9.40
2022-10-11T07:09:08.216Z,9.50
2022-10-11T07:11:36.104Z,9.40
2022-10-11T07:14:07.779Z,9.70
2022-10-11T07:16:38.128Z,9.80
2022-10-11T07:19:06.766Z,9.80
2022-10-11T07:21:34.946Z,10.00
2022-10-11T07:24:02.446Z,9.50
2022-10-11T07:26:36.660Z,9.30
2022-10-11T07:29:05.706Z,10.30
2022-10-11T07:31:32.636Z,10.10
2022-10-11T07:33:59.531Z,10.20
2022-10-11T07:36:26.360Z,9.70
2022-10-11T07:38:53.354Z,9.60
2022-10-11T07:41:20.685Z,9.60
2022-10-11T07:43:49.694Z,10.00
2022-10-11T07:46:18.388Z,9.70
2022-10-11T07:48:45.683Z,9.90
2022-10-11T07:51:20.508Z,9.70
2022-10-11T07:53:49.799Z,9.50
2022-10-11T07:56:20.170Z,9.60
2022-10-11T07:58:52.055Z,9.50
2022-10-11T08:01:19.949Z,9.60
2022-10-11T08:03:47.877Z,9.60
2022-10-11T08:06:17.212Z,9.80
2022-10-11T08:08:44.106Z,9.70
2022-10-11T08:11:11.139Z,9.70
2022-10-11T08:13:38.093Z,9.70
2022-10-11T08:16:13.129Z,9.90
2022-10-11T08:18:40.163Z,9.90
2022-10-11T08:21:12.512Z,9.80
2022-10-11T08:23:40.231Z,9.70
2022-10-11T08:26:07.914Z,9.60
2022-10-11T08:31:02.946Z,9.40
2022-10-11T08:35:58.505Z,9.60
2022-10-11T08:38:25.503Z,9.50
2022-10-11T08:40:55.363Z,10.60
2022-10-11T08:43:45.883Z,9.90
2022-10-11T08:46:15.282Z,10.30
2022-10-11T08:48:47.365Z,11.10
2022-10-11T08:51:20.878Z,10.40
2022-10-11T08:54:19.352Z,10.50
2022-10-11T08:56:46.891Z,10.90
2022-10-11T08:59:13.798Z,11.10
2022-10-11T09:01:49.805Z,11.10
2022-10-11T09:04:18.257Z,10.90
2022-10-11T09:07:08.173Z,11.20
2022-10-11T09:09:41.092Z,11.60
2022-10-11T09:12:34.325Z,12.20
2022-10-11T09:15:37.098Z,12.60
2022-10-11T09:18:32.997Z,12.50
2022-10-11T09:21:23.139Z,12.50
2022-10-11T09:24:08.438Z,12.70
2022-10-11T09:26:59.502Z,12.80
2022-10-11T09:29:35.192Z,13.00
2022-10-11T09:32:02.523Z,12.80
2022-10-11T09:34:35.372Z,13.00
2022-10-11T09:37:20.926Z,12.50
2022-10-11T09:39:56.283Z,12.60
2022-10-11T09:44:51.708Z,12.50
2022-10-11T09:47:29.355Z,12.30
2022-10-11T09:50:03.952Z,12.80
2022-10-11T09:55:02.854Z,13.10
2022-10-11T09:57:31.777Z,13.00
2022-10-11T09:59:59.875Z,13.00
2022-10-11T10:02:29.132Z,12.80
2022-10-11T10:05:14.555Z,12.80
2022-10-11T10:08:23.560Z,12.80
2022-10-11T10:11:04.871Z,13.00
2022-10-11T10:13:56.267Z,12.90
2022-10-11T10:16:33.180Z,13.10
2022-10-11T10:19:16.863Z,13.30
2022-10-11T10:21:49.547Z,13.00
2022-10-11T10:24:33.304Z,13.30
2022-10-11T10:27:05.944Z,13.40
2022-10-11T10:29:33.507Z,13.00
2022-10-11T10:32:15.099Z,13.80
2022-10-11T10:34:53.234Z,13.60
2022-10-11T10:37:32.476Z,13.50
2022-10-11T10:40:09.200Z,13.40
2022-10-11T10:42:36.935Z,13.90
2022-10-11T10:45:12.590Z,13.90
2022-10-11T10:47:56.153Z,13.70
2022-10-11T10:50:32.703Z,13.60
2022-10-11T10:53:14.501Z,13.40
2022-10-11T10:55:45.495Z,13.10
2022-10-11T10:58:22.217Z,13.20
2022-10-11T11:00:59.990Z,13.30
2022-10-11T11:03:51.371Z,13.20
2022-10-11T11:06:36.685Z,13.40
2022-10-11T11:09:27.196Z,13.60
2022-10-11T11:14:50.550Z,14.30
2022-10-11T11:17:46.572Z,14.10
2022-10-11T11:20:21.602Z,14.60
2022-10-11T11:22:48.738Z,14.50
2022-10-11T11:25:35.872Z,14.60
2022-10-11T11:28:24.736Z,14.60
2022-10-11T11:31:23.342Z,14.70
2022-10-11T11:34:23.527Z,14.80
2022-10-11T11:37:00.525Z,14.80
2022-10-11T11:39:37.378Z,14.70
2022-10-11T11:42:35.209Z,14.70
2022-10-11T11:45:20.108Z,15.10
2022-10-11T11:48:02.751Z,14.40
2022-10-11T11:50:37.173Z,14.60
2022-10-11T11:53:19.674Z,14.30
2022-10-11T11:56:09.874Z,14.20
2022-10-11T11:58:42.894Z,14.30
2022-10-11T12:01:31.532Z,13.70
2022-10-11T12:04:02.852Z,13.80
2022-10-11T12:06:32.984Z,13.50
2022-10-11T12:11:35.334Z,13.40
2022-10-11T12:14:16.953Z,13.60
2022-10-11T12:17:08.993Z,13.40
2022-10-11T12:19:37.767Z,13.40
2022-10-11T12:22:36.783Z,13.60
2022-10-11T12:25:12.810Z,13.70
2022-10-11T12:27:49.260Z,13.90
2022-10-11T12:30:44.228Z,13.70
2022-10-11T12:33:23.201Z,13.80
2022-10-11T12:35:55.861Z,13.80
2022-10-11T12:38:37.266Z,13.70
2022-10-11T12:41:06.978Z,12.40
2022-10-11T12:43:47.704Z,13.70
2022-10-11T12:46:29.973Z,13.60
2022-10-11T12:49:25.218Z,13.70
2022-10-11T12:52:01.369Z,13.60
2022-10-11T12:54:54.894Z,13.50
2022-10-11T12:57:37.342Z,13.40
2022-10-11T13:00:28.997Z,13.30
2022-10-11T13:03:04.927Z,13.10
2022-10-11T13:05:46.947Z,13.00
2022-10-11T13:08:22.856Z,13.60
2022-10-11T13:10:49.844Z,13.10
2022-10-11T13:13:27.120Z,13.00
2022-10-11T13:15:56.359Z,13.20
2022-10-11T13:18:25.939Z,13.00
2022-10-11T13:20:54.726Z,13.10
2022-10-11T13:23:27.905Z,13.00
2022-10-11T13:25:56.196Z,13.00
2022-10-11T13:28:24.243Z,13.10
2022-10-11T13:30:59.572Z,13.10
2022-10-11T13:33:33.014Z,13.10
2022-10-11T13:36:02.183Z,12.90
2022-10-11T13:38:35.452Z,12.90
2022-10-11T13:41:06.116Z,13.10
2022-10-11T13:43:34.539Z,12.90
2022-10-11T13:46:05.347Z,13.00
2022-10-11T13:48:38.725Z,13.40
2022-10-11T13:51:16.876Z,12.70
2022-10-11T13:54:02.616Z,13.10
2022-10-11T13:56:36.839Z,13.70
2022-10-11T14:01:44.182Z,12.90
2022-10-11T14:04:15.489Z,12.70
2022-10-11T14:06:52.301Z,13.30
2022-10-11T14:09:39.640Z,12.80
2022-10-11T14:12:25.315Z,12.60
2022-10-11T14:17:33.049Z,12.60
2022-10-11T14:20:13.013Z,12.60
2022-10-11T14:22:39.901Z,12.50
2022-10-11T14:25:06.877Z,12.70
2022-10-11T14:32:51.525Z,12.50
2022-10-11T14:35:24.540Z,12.50
2022-10-11T14:37:52.253Z,12.10
2022-10-11T14:40:25.061Z,12.20
2022-10-11T14:42:52.861Z,12.00
2022-10-11T14:45:21.351Z,11.90
2022-10-11T14:47:49.344Z,11.90
2022-10-11T14:50:42.867Z,12.00
2022-10-11T14:53:11.435Z,11.90
2022-10-11T14:55:40.661Z,11.80
2022-10-11T14:58:08.908Z,11.80
2022-10-11T15:00:37.037Z,11.70
2022-10-11T15:03:07.158Z,11.50
2022-10-11T15:08:03.183Z,11.90
2022-10-11T15:10:35.216Z,11.60
2022-10-11T15:13:02.792Z,11.60
2022-10-11T15:15:32.748Z,11.70
2022-10-11T15:18:00.500Z,11.60
2022-10-11T15:20:31.737Z,11.60
2022-10-11T15:23:00.155Z,11.30
2022-10-11T15:25:29.045Z,11.40
2022-10-11T15:27:56.703Z,11.00
2022-10-11T15:30:26.343Z,11.00
2022-10-11T15:32:53.860Z,11.60
2022-10-11T15:35:22.861Z,10.90
2022-10-11T15:37:53.125Z,11.00
2022-10-11T15:42:47.731Z,10.50
2022-10-11T15:45:16.306Z,10.90
2022-10-11T15:50:34.062Z,10.40
2022-10-11T15:53:04.871Z,10.50
2022-10-11T15:55:33.177Z,10.60
2022-10-11T16:00:29.297Z,10.50
2022-10-11T16:02:57.125Z,10.60
2022-10-11T16:05:26.107Z,10.60
2022-10-11T16:07:53.344Z,10.30
2022-10-11T16:10:21.148Z,10.10
2022-10-11T16:12:48.315Z,10.30
2022-10-11T16:15:15.951Z,10.20
2022-10-11T16:17:42.812Z,10.30
2022-10-11T16:20:09.886Z,10.30
2022-10-11T16:22:36.839Z,9.80
2022-10-11T16:25:04.551Z,10.20
2022-10-11T16:27:32.060Z,9.90
2022-10-11T16:29:59.658Z,9.80
2022-10-11T16:32:27.476Z,9.80
2022-10-11T16:34:54.436Z,9.50
2022-10-11T16:37:21.302Z,9.60
2022-10-11T16:39:48.176Z,9.70
2022-10-11T16:44:42.277Z,10.30
2022-10-11T16:49:36.364Z,9.90
2022-10-11T16:54:32.096Z,9.90
2022-10-11T16:57:00.171Z,9.60
2022-10-11T16:59:27.260Z,9.60
2022-10-11T17:01:54.256Z,9.50
2022-10-11T17:04:21.679Z,9.50
2022-10-11T17:06:48.627Z,9.70
2022-10-11T17:09:16.083Z,10.00
2022-10-11T17:11:43.613Z,9.40
2022-10-11T17:14:12.341Z,9.90
2022-10-11T17:16:39.841Z,9.00
2022-10-11T17:19:11.694Z,9.30
2022-10-11T17:21:38.887Z,9.50
2022-10-11T17:24:06.282Z,9.50
2022-10-11T17:26:33.300Z,9.00
2022-10-11T17:29:01.064Z,8.50
2022-10-11T17:31:29.176Z,9.00
2022-10-11T17:33:58.951Z,8.80
2022-10-11T17:36:32.011Z,8.70
2022-10-11T17:39:04.959Z,8.70
2022-10-11T17:41:32.392Z,8.40
2022-10-11T17:43:59.684Z,8.50
2022-10-11T17:46:28.144Z,8.80
2022-10-11T17:48:55.719Z,8.30
2022-10-11T17:51:22.865Z,8.40
2022-10-11T17:53:53.264Z,8.50
2022-10-11T17:56:28.175Z,8.40
2022-10-11T17:58:57.957Z,8.40
2022-10-11T18:01:27.644Z,8.30
2022-10-11T18:03:57.695Z,8.50
2022-10-11T18:06:26.855Z,8.50
2022-10-11T18:08:53.781Z,8.80
2022-10-11T18:11:21.109Z,8.00
2022-10-11T18:13:49.390Z,8.10
2022-10-11T18:16:19.022Z,8.10
2022-10-11T18:18:46.154Z,8.20
2022-10-11T18:21:14.547Z,8.40
2022-10-11T18:23:41.530Z,8.00
2022-10-11T18:26:13.282Z,8.00
2022-10-11T18:31:13.337Z,8.40
2022-10-11T18:33:42.173Z,7.80
2022-10-11T18:36:12.226Z,8.10
2022-10-11T18:38:43.043Z,8.00
2022-10-11T18:41:11.278Z,7.70
2022-10-11T18:43:38.353Z,8.20
2022-10-11T18:46:07.370Z,8.00
2022-10-11T18:48:34.426Z,8.00
2022-10-11T18:51:06.357Z,7.80
2022-10-11T18:53:37.192Z,7.90
2022-10-11T18:56:06.622Z,8.00
2022-10-11T18:58:35.247Z,8.30
2022-10-11T19:01:13.164Z,7.90
2022-10-11T19:03:40.003Z,7.80
2022-10-11T19:06:11.291Z,8.20
2022-10-11T19:08:38.185Z,7.60
2022-10-11T19:11:09.569Z,7.60
2022-10-11T19:13:36.999Z,7.70
2022-10-11T19:16:12.503Z,7.90
2022-10-11T19:18:44.064Z,7.60
2022-10-11T19:21:13.442Z,7.90
2022-10-11T19:23:42.577Z,7.90
2022-10-11T19:26:14.373Z,7.70
2022-10-11T19:28:41.897Z,7.80
2022-10-11T19:31:11.155Z,8.00
2022-10-11T19:33:37.992Z,8.00
2022-10-11T19:36:06.887Z,7.70
2022-10-11T19:38:35.482Z,7.50
2022-10-11T19:41:04.645Z,7.50
2022-10-11T19:43:32.167Z,7.70
2022-10-11T19:46:03.451Z,7.50
2022-10-11T19:48:30.908Z,7.30
2022-10-11T19:51:09.492Z,7.30
2022-10-11T19:53:36.740Z,7.70
2022-10-11T19:56:09.187Z,7.80
2022-10-11T19:58:36.227Z,7.40
2022-10-11T20:01:12.208Z,7.60
2022-10-11T20:03:39.464Z,7.20
2022-10-11T20:06:08.117Z,7.50
2022-10-11T20:08:38.481Z,7.50
2022-10-11T20:11:09.763Z,7.60
2022-10-11T20:13:37.479Z,7.80
2022-10-11T20:16:09.485Z,7.50
2022-10-11T20:18:37.896Z,7.70
2022-10-11T20:21:08.176Z,8.90
2022-10-11T20:23:35.773Z,7.40
2022-10-11T20:26:20.931Z,7.40
2022-10-11T20:28:55.016Z,7.40
2022-10-11T20:31:28.629Z,7.20
2022-10-11T20:33:57.673Z,7.20
2022-10-11T20:36:26.774Z,7.40
2022-10-11T20:38:53.795Z,7.10
2022-10-11T20:41:23.674Z,7.60
2022-10-11T20:43:55.733Z,7.50
2022-10-11T20:46:28.125Z,7.60
2022-10-11T20:49:01.376Z,7.70
2022-10-11T20:51:30.145Z,7.10
2022-10-11T20:56:24.468Z,7.20
2022-10-11T20:58:53.674Z,7.30
2022-10-11T21:01:26.569Z,7.40
2022-10-11T21:03:54.013Z,7.60
2022-10-11T21:08:49.723Z,7.40
2022-10-11T21:11:16.601Z,7.30
2022-10-11T21:13:43.435Z,7.30
2022-10-11T21:16:14.930Z,7.40
2022-10-11T21:18:42.402Z,7.00
2022-10-11T21:21:14.141Z,7.20
2022-10-11T21:23:41.914Z,7.50
2022-10-11T21:26:11.438Z,7.60
2022-10-11T21:28:39.884Z,7.30
2022-10-11T21:31:11.944Z,7.10
2022-10-11T21:33:39.901Z,7.00
2022-10-11T21:36:08.360Z,7.20
2022-10-11T21:38:35.626Z,6.90
2022-10-11T21:41:07.622Z,7.10
2022-10-11T21:43:36.067Z,6.90
2022-10-11T21:46:21.639Z,7.20
2022-10-11T21:48:50.175Z,7.30
2022-10-11T21:51:22.675Z,7.20
2022-10-11T21:53:49.895Z,7.30
2022-10-11T21:56:16.866Z,7.40
2022-10-11T21:58:46.004Z,7.00
2022-10-11T22:01:12.890Z,6.90
2022-10-11T22:03:39.847Z,6.70
2022-10-11T22:06:06.818Z,6.80
2022-10-11T22:08:34.011Z,6.80
2022-10-11T22:11:01.356Z,7.20
2022-10-11T22:13:30.331Z,7.30
2022-10-11T22:15:57.223Z,7.10
2022-10-11T22:18:24.801Z,7.60
2022-10-11T22:20:51.910Z,7.10
2022-10-11T22:23:19.313Z,7.10
2022-10-11T22:25:46.518Z,7.10
2022-10-11T22:28:13.798Z,6.90
2022-10-11T22:30:40.949Z,7.10
2022-10-11T22:33:07.822Z,7.10
2022-10-11T22:35:38.033Z,7.00
2022-10-11T22:38:06.348Z,7.10
2022-10-11T22:40:33.331Z,7.30
2022-10-11T22:43:00.390Z,6.80
2022-10-11T22:45:27.268Z,6.70
2022-10-11T22:47:54.161Z,6.80
2022-10-11T22:50:21.059Z,6.70
2022-10-11T22:52:48.002Z,7.10
2022-10-11T22:55:19.732Z,6.40
2022-10-11T22:57:47.145Z,7.10
2022-10-11T23:00:14.692Z,6.70
2022-10-11T23:02:41.646Z,6.60
2022-10-11T23:05:08.680Z,6.60
2022-10-11T23:07:36.137Z,7.30
2022-10-11T23:10:04.251Z,6.40
2022-10-11T23:12:31.195Z,7.00
2022-10-11T23:14:58.276Z,6.90
2022-10-11T23:19:52.861Z,6.30
2022-10-11T23:22:19.778Z,6.80
2022-10-11T23:24:46.811Z,6.60
2022-10-11T23:27:13.802Z,6.30
2022-10-11T23:32:09.079Z,6.60
2022-10-11T23:34:35.975Z,6.30
2022-10-11T23:37:03.510Z,6.60
2022-10-11T23:39:30.462Z,6.60
2022-10-11T23:41:57.565Z,6.90
2022-10-11T23:46:52.295Z,6.70
2022-10-11T23:49:19.226Z,6.90
2022-10-11T23:51:46.216Z,6.70
2022-10-11T23:54:13.123Z,6.10
2022-10-11T23:56:40.064Z,6.80
2022-10-11T23:59:07.032Z,6.10
